Zapolyarye — UBEF5 — position and weather

sailwx.info

Track history (hours):
 
Tides and Currents Weather Stations Pressure Air Temp Water Temp Dewpoint Dewpoint Depression Visibility Wind Speed Wind Dir Waves Ship Positions

Zapolyarye

Last reported at 2017-Jul-26 07:00 UTC. Time now 2017-Jul-28 16:54 UTC.
Position N 69°24' E 037°06'.

Length 181 m; draft 6.8 m.

Type: Cargo ship. MMSI: 273338310.

Wind from 110 at 14 knots

Barometer 760.0 mb
Air temperature 8.0 ° C
Visibility: greater than 10.8 NM
Water temperature 12.0 ° C

Date/timePositionNaut miles runAvg speedWind from/ knotsBaromVisibWave heightAir tempDewpointWater temp
2017-Jul-26 07:00N 69°24' E 037°06'17010.0 110 / 14760.010.8 8.0 12.0
2017-Jul-25 13:59N 71°04' E 030°21'611.6
2017-Jul-25 13:30N 71°07' E 030°07'611.7
2017-Jul-25 13:00N 71°11' E 029°53'611.3
2017-Jul-25 12:30N 71°14' E 029°38'510.9
2017-Jul-25 12:00N 71°18' E 029°25'510.5
2017-Jul-25 11:30N 71°21' E 029°12'  
2017-Jul-22 07:00N 62°24' E 004°06'225 9.9 020 / 10762.210.8 14.0 16.0
2017-Jul-21 08:15N 58°39' E 004°41'210.4
2017-Jul-21 08:00N 58°38' E 004°45'510.0
2017-Jul-21 07:30N 58°34' E 004°52'510.3
2017-Jul-21 06:59N 58°31' E 004°60'1010.9
2017-Jul-21 06:03N 58°24' E 005°14'111.2
2017-Jul-21 06:00N 58°24' E 005°15'511.2
2017-Jul-21 05:30N 58°20' E 005°23'611.4
2017-Jul-21 05:00N 58°17' E 005°32'611.6
2017-Jul-21 04:29N 58°13' E 005°40'611.9
2017-Jul-21 04:00N 58°09' E 005°49'611.7
2017-Jul-21 03:30N 58°05' E 005°57'612.0
2017-Jul-21 02:59N 58°01' E 006°06'612.2
2017-Jul-21 02:30N 57°58' E 006°15'612.1
2017-Jul-21 02:00N 57°54' E 006°23'611.8
2017-Jul-21 01:29N 57°50' E 006°32'510.8
2017-Jul-21 00:59N 57°48' E 006°42'611.5
2017-Jul-21 00:30N 57°48' E 006°52'611.5
2017-Jul-21 00:00N 57°48' E 007°03'611.9
2017-Jul-20 23:30N 57°48' E 007°14'612.1
2017-Jul-20 23:00N 57°48' E 007°26'612.0
2017-Jul-20 22:30N 57°48' E 007°37'611.8
2017-Jul-20 22:00N 57°48' E 007°48'611.6
2017-Jul-20 21:30N 57°48' E 007°59'611.4
2017-Jul-20 20:59N 57°48' E 008°10'2610.7
2017-Jul-20 18:33N 57°48' E 008°58'410.8
2017-Jul-20 18:08N 57°49' E 009°07'110.9
2017-Jul-20 18:00N 57°49' E 009°10'610.9
2017-Jul-20 17:30N 57°49' E 009°20'510.6
2017-Jul-20 16:59N 57°50' E 009°30'510.6
2017-Jul-20 16:29N 57°50' E 009°40'510.8
2017-Jul-20 16:00N 57°50' E 009°50'510.8
2017-Jul-20 15:30N 57°51' E 009°60'612.0
2017-Jul-20 15:00N 57°51' E 010°11'1111.3
2017-Jul-20 14:00N 57°49' E 010°32'611.4
2017-Jul-20 13:29N 57°48' E 010°43'510.8
2017-Jul-20 12:59N 57°43' E 010°48'5 8.9
2017-Jul-20 12:26N 57°39' E 010°45'2 3.3
2017-Jul-20 11:49N 57°38' E 010°41'0 0.0
2017-Jul-20 11:13N 57°38' E 010°41'0 0.0
2017-Jul-20 10:49N 57°38' E 010°41'0 0.0
2017-Jul-20 09:58N 57°38' E 010°41'0 0.0
2017-Jul-20 09:31N 57°38' E 010°41'0 0.0
2017-Jul-20 08:55N 57°38' E 010°41'0 0.0
2017-Jul-20 08:28N 57°38' E 010°41'0 0.0
2017-Jul-20 07:57N 57°38' E 010°41'0 0.0
2017-Jul-20 07:27N 57°38' E 010°41'0 0.0
2017-Jul-20 06:57N 57°38' E 010°41'0 0.0
2017-Jul-20 06:30N 57°38' E 010°41'0 0.0
2017-Jul-20 06:00N 57°38' E 010°41'0 0.0
2017-Jul-20 05:27N 57°38' E 010°41'0 0.0
2017-Jul-20 05:00N 57°38' E 010°41'0 0.0
2017-Jul-20 04:30N 57°38' E 010°41'0 0.0
2017-Jul-20 03:45N 57°38' E 010°41'0 0.0
2017-Jul-20 03:24N 57°38' E 010°41'0 0.0
2017-Jul-20 02:54N 57°38' E 010°41'0 0.0
2017-Jul-20 02:27N 57°38' E 010°41'0 0.0
2017-Jul-20 02:00N 57°38' E 010°41'0 0.0
2017-Jul-19 23:18N 57°38' E 010°41'0 0.0
2017-Jul-19 23:00N 57°38' E 010°41'0 0.0
2017-Jul-19 21:42N 57°38' E 010°41'0 0.0
2017-Jul-19 20:18N 57°38' E 010°41'0 0.0
2017-Jul-19 19:54N 57°38' E 010°41'0 0.0
2017-Jul-19 19:24N 57°38' E 010°41'0 0.0
2017-Jul-19 19:00N 57°38' E 010°41'0 0.0
2017-Jul-19 18:30N 57°38' E 010°41'0 0.0
2017-Jul-19 18:00N 57°38' E 010°41'0 0.0
2017-Jul-19 17:30N 57°38' E 010°41'0 0.0
2017-Jul-19 17:00N 57°38' E 010°41'0 0.0
2017-Jul-19 16:30N 57°38' E 010°41'0 0.0
2017-Jul-19 16:00N 57°38' E 010°41'0 0.0
2017-Jul-19 15:30N 57°38' E 010°41'0 0.0
2017-Jul-19 14:57N 57°38' E 010°41'0 0.0
2017-Jul-19 14:30N 57°38' E 010°41'0 0.0
2017-Jul-19 13:57N 57°38' E 010°41'0 0.1
2017-Jul-19 13:30N 57°38' E 010°41'0 0.0
2017-Jul-19 12:42N 57°38' E 010°41'0 0.0
2017-Jul-19 12:30N 57°38' E 010°41'0 0.0
2017-Jul-19 11:42N 57°38' E 010°41'0 0.0
2017-Jul-19 11:24N 57°38' E 010°41'0 0.0
2017-Jul-19 09:51N 57°38' E 010°41'0 0.0
2017-Jul-19 09:18N 57°38' E 010°41'0 0.0
2017-Jul-19 09:00N 57°38' E 010°41'0 0.0
2017-Jul-19 07:51N 57°38' E 010°41'0 0.0
2017-Jul-19 07:24N 57°38' E 010°41'1742.2
2017-Jul-19 07:00N 57°24' E 010°24'17398.8 200 / 14762.210.8 17.0 16.0
2017-Jul-19 06:57N 57°38' E 010°41'0 0.0
2017-Jul-19 06:30N 57°38' E 010°41'0 0.0
2017-Jul-19 06:00N 57°38' E 010°41'0 0.0
2017-Jul-19 05:30N 57°38' E 010°41'0 0.0
2017-Jul-19 04:15N 57°38' E 010°41'0 0.0
2017-Jul-19 03:48N 57°38' E 010°41'0 0.0
2017-Jul-19 03:30N 57°38' E 010°41'0 0.0
2017-Jul-19 02:27N 57°38' E 010°41'0 0.0
2017-Jul-19 01:57N 57°38' E 010°41'0 0.0
2017-Jul-19 01:27N 57°38' E 010°41'0 0.0
2017-Jul-19 00:36N 57°38' E 010°41'0 0.0
2017-Jul-18 23:00N 57°38' E 010°41'0 0.0
2017-Jul-18 22:27N 57°38' E 010°41'0 0.0
2017-Jul-18 22:00N 57°38' E 010°41'0 0.0
2017-Jul-18 19:18N 57°38' E 010°41'0 0.0
2017-Jul-18 18:48N 57°38' E 010°41'0 0.0
2017-Jul-18 18:09N 57°38' E 010°41'0 0.0
2017-Jul-18 17:18N 57°38' E 010°41'0 0.0
2017-Jul-18 17:00N 57°38' E 010°41'0 0.0
2017-Jul-18 15:54N 57°38' E 010°41'0 0.0
2017-Jul-18 13:30N 57°38' E 010°41'0 0.0
2017-Jul-18 12:59N 57°38' E 010°41'0 0.0
2017-Jul-18 11:23N 57°38' E 010°41'0 0.0
2017-Jul-18 10:41N 57°38' E 010°41'0 0.0
2017-Jul-18 10:08N 57°38' E 010°41'0 0.0
2017-Jul-18 09:44N 57°38' E 010°41'0 0.0
2017-Jul-18 09:29N 57°38' E 010°41'0 0.0
2017-Jul-18 08:44N 57°38' E 010°41'0 0.0
2017-Jul-18 08:20N 57°38' E 010°41'0 0.0
2017-Jul-18 07:59N 57°38' E 010°41'0 0.0
2017-Jul-18 06:02N 57°38' E 010°42'0 0.2
2017-Jul-18 05:59N 57°38' E 010°41'0 0.0
2017-Jul-18 05:08N 57°38' E 010°41'0 0.0
2017-Jul-18 04:35N 57°38' E 010°41'0 0.0
2017-Jul-18 03:47N 57°38' E 010°42'0 0.0
2017-Jul-18 02:50N 57°38' E 010°41'0 0.0
2017-Jul-18 01:50N 57°38' E 010°42'0 0.0
2017-Jul-18 01:23N 57°38' E 010°42'0 0.0
2017-Jul-18 00:56N 57°38' E 010°42'0 0.0
2017-Jul-17 23:02N 57°38' E 010°42'0 0.0
2017-Jul-17 22:47N 57°38' E 010°42'0 0.0
2017-Jul-17 22:17N 57°38' E 010°42'0 0.0
2017-Jul-17 21:56N 57°38' E 010°42'0 0.0
2017-Jul-17 20:38N 57°38' E 010°42'0 0.0
2017-Jul-17 20:05N 57°38' E 010°42'0 0.1
2017-Jul-17 19:59N 57°38' E 010°42'0 0.0
2017-Jul-17 19:23N 57°38' E 010°42'0 0.0
2017-Jul-17 18:44N 57°38' E 010°42'0 0.0
2017-Jul-17 18:29N 57°38' E 010°42'0 0.0
2017-Jul-17 17:38N 57°38' E 010°42'0 0.0
2017-Jul-17 16:53N 57°38' E 010°42'0 0.0
2017-Jul-17 15:53N 57°38' E 010°42'0 0.0
2017-Jul-17 14:20N 57°38' E 010°42'0 0.0
2017-Jul-17 13:53N 57°38' E 010°42'0 0.0
2017-Jul-17 13:20N 57°38' E 010°42'0 0.0
2017-Jul-17 12:56N 57°38' E 010°42'0 0.0
2017-Jul-17 12:26N 57°38' E 010°42'0 0.0
2017-Jul-17 11:23N 57°38' E 010°42'0 0.0
2017-Jul-17 10:56N 57°38' E 010°42'0 0.0
2017-Jul-17 09:47N 57°38' E 010°42'0 0.0
2017-Jul-17 09:23N 57°38' E 010°42'0 0.0
2017-Jul-17 08:59N 57°38' E 010°42'0 0.0
2017-Jul-17 08:26N 57°38' E 010°41'0 0.0
2017-Jul-17 07:53N 57°38' E 010°41'0 0.0
2017-Jul-17 05:17N 57°38' E 010°41'0 0.0
2017-Jul-17 04:56N 57°38' E 010°41'0 0.0
2017-Jul-17 04:11N 57°38' E 010°42'0 0.0
2017-Jul-17 02:26N 57°38' E 010°42'0 0.0
2017-Jul-17 01:35N 57°38' E 010°42'0 0.0
2017-Jul-17 01:11N 57°38' E 010°42'0 0.0
2017-Jul-17 00:26N 57°38' E 010°42'0 0.0
2017-Jul-16 23:38N 57°38' E 010°42'0 0.0
2017-Jul-16 22:17N 57°38' E 010°42'0 0.0
2017-Jul-16 21:50N 57°38' E 010°42'0 0.0
2017-Jul-16 21:23N 57°38' E 010°42'0 0.0
2017-Jul-16 20:35N 57°38' E 010°42'0 0.0
2017-Jul-16 20:08N 57°38' E 010°42'0 0.0
2017-Jul-16 19:44N 57°38' E 010°42'0 0.0
2017-Jul-16 19:29N 57°38' E 010°42'0 0.0
2017-Jul-16 18:20N 57°38' E 010°42'0 0.0
2017-Jul-16 17:56N 57°38' E 010°42'0 0.0
2017-Jul-16 17:29N 57°38' E 010°42'0 0.0
2017-Jul-16 16:52N 57°38' E 010°42'0 0.0
2017-Jul-16 15:16N 57°38' E 010°41'0 0.0
2017-Jul-16 14:37N 57°38' E 010°41'0 0.0
2017-Jul-16 14:25N 57°38' E 010°41'0 0.0
2017-Jul-16 13:46N 57°38' E 010°41'0 0.0
2017-Jul-16 12:07N 57°38' E 010°41'0 0.0
2017-Jul-16 11:22N 57°38' E 010°41'0 0.0
2017-Jul-16 10:01N 57°38' E 010°41'0 0.0
2017-Jul-16 09:25N 57°38' E 010°41'0 0.0
2017-Jul-16 08:58N 57°38' E 010°41'0 0.0
2017-Jul-16 08:13N 57°38' E 010°41'0 0.0
2017-Jul-16 07:43N 57°38' E 010°41'0 0.0
2017-Jul-16 07:28N 57°38' E 010°41'1735.9
2017-Jul-16 07:00N 57°24' E 010°24'   230 / 29753.110.8 15.0 15.0
Track history (hours):
 
Tides and Currents Weather Stations Pressure Air Temp Water Temp Dewpoint Dewpoint Depression Visibility Wind Speed Wind Dir Waves Ship Positions

Zapolyarye

Last reported at 2017-Jul-26 07:00 UTC. Time now 2017-Jul-28 16:54 UTC.
Position N 69°24' E 037°06'.

Length 181 m; draft 6.8 m.

Type: Cargo ship. MMSI: 273338310.

Wind from 110 at 14 knots

Barometer 760.0 mb
Air temperature 8.0 ° C
Visibility: greater than 10.8 NM
Water temperature 12.0 ° C

Date/timePositionNaut miles runAvg speedWind from/ knotsBaromVisibWave heightAir tempDewpointWater temp
2017-Jul-26 07:00N 69°24' E 037°06'17010.0 110 / 14760.010.8 8.0 12.0
2017-Jul-25 13:59N 71°04' E 030°21'611.6
2017-Jul-25 13:30N 71°07' E 030°07'611.7
2017-Jul-25 13:00N 71°11' E 029°53'611.3
2017-Jul-25 12:30N 71°14' E 029°38'510.9
2017-Jul-25 12:00N 71°18' E 029°25'510.5
2017-Jul-25 11:30N 71°21' E 029°12'  
2017-Jul-22 07:00N 62°24' E 004°06'225 9.9 020 / 10762.210.8 14.0 16.0
2017-Jul-21 08:15N 58°39' E 004°41'210.4
2017-Jul-21 08:00N 58°38' E 004°45'510.0
2017-Jul-21 07:30N 58°34' E 004°52'510.3
2017-Jul-21 06:59N 58°31' E 004°60'1010.9
2017-Jul-21 06:03N 58°24' E 005°14'111.2
2017-Jul-21 06:00N 58°24' E 005°15'511.2
2017-Jul-21 05:30N 58°20' E 005°23'611.4
2017-Jul-21 05:00N 58°17' E 005°32'611.6
2017-Jul-21 04:29N 58°13' E 005°40'611.9
2017-Jul-21 04:00N 58°09' E 005°49'611.7
2017-Jul-21 03:30N 58°05' E 005°57'612.0
2017-Jul-21 02:59N 58°01' E 006°06'612.2
2017-Jul-21 02:30N 57°58' E 006°15'612.1
2017-Jul-21 02:00N 57°54' E 006°23'611.8
2017-Jul-21 01:29N 57°50' E 006°32'510.8
2017-Jul-21 00:59N 57°48' E 006°42'611.5
2017-Jul-21 00:30N 57°48' E 006°52'611.5
2017-Jul-21 00:00N 57°48' E 007°03'611.9
2017-Jul-20 23:30N 57°48' E 007°14'612.1
2017-Jul-20 23:00N 57°48' E 007°26'612.0
2017-Jul-20 22:30N 57°48' E 007°37'611.8
2017-Jul-20 22:00N 57°48' E 007°48'611.6
2017-Jul-20 21:30N 57°48' E 007°59'611.4
2017-Jul-20 20:59N 57°48' E 008°10'2610.7
2017-Jul-20 18:33N 57°48' E 008°58'410.8
2017-Jul-20 18:08N 57°49' E 009°07'110.9
2017-Jul-20 18:00N 57°49' E 009°10'610.9
2017-Jul-20 17:30N 57°49' E 009°20'510.6
2017-Jul-20 16:59N 57°50' E 009°30'510.6
2017-Jul-20 16:29N 57°50' E 009°40'510.8
2017-Jul-20 16:00N 57°50' E 009°50'510.8
2017-Jul-20 15:30N 57°51' E 009°60'612.0
2017-Jul-20 15:00N 57°51' E 010°11'1111.3
2017-Jul-20 14:00N 57°49' E 010°32'611.4
2017-Jul-20 13:29N 57°48' E 010°43'510.8
2017-Jul-20 12:59N 57°43' E 010°48'5 8.9
2017-Jul-20 12:26N 57°39' E 010°45'2 3.3
2017-Jul-20 11:49N 57°38' E 010°41'0 0.0
2017-Jul-20 11:13N 57°38' E 010°41'0 0.0
2017-Jul-20 10:49N 57°38' E 010°41'0 0.0
2017-Jul-20 09:58N 57°38' E 010°41'0 0.0
2017-Jul-20 09:31N 57°38' E 010°41'0 0.0
2017-Jul-20 08:55N 57°38' E 010°41'0 0.0
2017-Jul-20 08:28N 57°38' E 010°41'0 0.0
2017-Jul-20 07:57N 57°38' E 010°41'0 0.0
2017-Jul-20 07:27N 57°38' E 010°41'0 0.0
2017-Jul-20 06:57N 57°38' E 010°41'0 0.0
2017-Jul-20 06:30N 57°38' E 010°41'0 0.0
2017-Jul-20 06:00N 57°38' E 010°41'0 0.0
2017-Jul-20 05:27N 57°38' E 010°41'0 0.0
2017-Jul-20 05:00N 57°38' E 010°41'0 0.0
2017-Jul-20 04:30N 57°38' E 010°41'0 0.0
2017-Jul-20 03:45N 57°38' E 010°41'0 0.0
2017-Jul-20 03:24N 57°38' E 010°41'0 0.0
2017-Jul-20 02:54N 57°38' E 010°41'0 0.0
2017-Jul-20 02:27N 57°38' E 010°41'0 0.0
2017-Jul-20 02:00N 57°38' E 010°41'0 0.0
2017-Jul-19 23:18N 57°38' E 010°41'0 0.0
2017-Jul-19 23:00N 57°38' E 010°41'0 0.0
2017-Jul-19 21:42N 57°38' E 010°41'0 0.0
2017-Jul-19 20:18N 57°38' E 010°41'0 0.0
2017-Jul-19 19:54N 57°38' E 010°41'0 0.0
2017-Jul-19 19:24N 57°38' E 010°41'0 0.0
2017-Jul-19 19:00N 57°38' E 010°41'0 0.0
2017-Jul-19 18:30N 57°38' E 010°41'0 0.0
2017-Jul-19 18:00N 57°38' E 010°41'0 0.0
2017-Jul-19 17:30N 57°38' E 010°41'0 0.0
2017-Jul-19 17:00N 57°38' E 010°41'0 0.0
2017-Jul-19 16:30N 57°38' E 010°41'0 0.0
2017-Jul-19 16:00N 57°38' E 010°41'0 0.0
2017-Jul-19 15:30N 57°38' E 010°41'0 0.0
2017-Jul-19 14:57N 57°38' E 010°41'0 0.0
2017-Jul-19 14:30N 57°38' E 010°41'0 0.0
2017-Jul-19 13:57N 57°38' E 010°41'0 0.1
2017-Jul-19 13:30N 57°38' E 010°41'0 0.0
2017-Jul-19 12:42N 57°38' E 010°41'0 0.0
2017-Jul-19 12:30N 57°38' E 010°41'0 0.0
2017-Jul-19 11:42N 57°38' E 010°41'0 0.0
2017-Jul-19 11:24N 57°38' E 010°41'0 0.0
2017-Jul-19 09:51N 57°38' E 010°41'0 0.0
2017-Jul-19 09:18N 57°38' E 010°41'0 0.0
2017-Jul-19 09:00N 57°38' E 010°41'0 0.0
2017-Jul-19 07:51N 57°38' E 010°41'0 0.0
2017-Jul-19 07:24N 57°38' E 010°41'1742.2
2017-Jul-19 07:00N 57°24' E 010°24'17398.8 200 / 14762.210.8 17.0 16.0
2017-Jul-19 06:57N 57°38' E 010°41'0 0.0
2017-Jul-19 06:30N 57°38' E 010°41'0 0.0
2017-Jul-19 06:00N 57°38' E 010°41'0 0.0
2017-Jul-19 05:30N 57°38' E 010°41'0 0.0
2017-Jul-19 04:15N 57°38' E 010°41'0 0.0
2017-Jul-19 03:48N 57°38' E 010°41'0 0.0
2017-Jul-19 03:30N 57°38' E 010°41'0 0.0
2017-Jul-19 02:27N 57°38' E 010°41'0 0.0
2017-Jul-19 01:57N 57°38' E 010°41'0 0.0
2017-Jul-19 01:27N 57°38' E 010°41'0 0.0
2017-Jul-19 00:36N 57°38' E 010°41'0 0.0
2017-Jul-18 23:00N 57°38' E 010°41'0 0.0
2017-Jul-18 22:27N 57°38' E 010°41'0 0.0
2017-Jul-18 22:00N 57°38' E 010°41'0 0.0
2017-Jul-18 19:18N 57°38' E 010°41'0 0.0
2017-Jul-18 18:48N 57°38' E 010°41'0 0.0
2017-Jul-18 18:09N 57°38' E 010°41'0 0.0
2017-Jul-18 17:18N 57°38' E 010°41'0 0.0
2017-Jul-18 17:00N 57°38' E 010°41'0 0.0
2017-Jul-18 15:54N 57°38' E 010°41'0 0.0
2017-Jul-18 13:30N 57°38' E 010°41'0 0.0
2017-Jul-18 12:59N 57°38' E 010°41'0 0.0
2017-Jul-18 11:23N 57°38' E 010°41'0 0.0
2017-Jul-18 10:41N 57°38' E 010°41'0 0.0
2017-Jul-18 10:08N 57°38' E 010°41'0 0.0
2017-Jul-18 09:44N 57°38' E 010°41'0 0.0
2017-Jul-18 09:29N 57°38' E 010°41'0 0.0
2017-Jul-18 08:44N 57°38' E 010°41'0 0.0
2017-Jul-18 08:20N 57°38' E 010°41'0 0.0
2017-Jul-18 07:59N 57°38' E 010°41'0 0.0
2017-Jul-18 06:02N 57°38' E 010°42'0 0.2
2017-Jul-18 05:59N 57°38' E 010°41'0 0.0
2017-Jul-18 05:08N 57°38' E 010°41'0 0.0
2017-Jul-18 04:35N 57°38' E 010°41'0 0.0
2017-Jul-18 03:47N 57°38' E 010°42'0 0.0
2017-Jul-18 02:50N 57°38' E 010°41'0 0.0
2017-Jul-18 01:50N 57°38' E 010°42'0 0.0
2017-Jul-18 01:23N 57°38' E 010°42'0 0.0
2017-Jul-18 00:56N 57°38' E 010°42'0 0.0
2017-Jul-17 23:02N 57°38' E 010°42'0 0.0
2017-Jul-17 22:47N 57°38' E 010°42'0 0.0
2017-Jul-17 22:17N 57°38' E 010°42'0 0.0
2017-Jul-17 21:56N 57°38' E 010°42'0 0.0
2017-Jul-17 20:38N 57°38' E 010°42'0 0.0
2017-Jul-17 20:05N 57°38' E 010°42'0 0.1
2017-Jul-17 19:59N 57°38' E 010°42'0 0.0
2017-Jul-17 19:23N 57°38' E 010°42'0 0.0
2017-Jul-17 18:44N 57°38' E 010°42'0 0.0
2017-Jul-17 18:29N 57°38' E 010°42'0 0.0
2017-Jul-17 17:38N 57°38' E 010°42'0 0.0
2017-Jul-17 16:53N 57°38' E 010°42'0 0.0
2017-Jul-17 15:53N 57°38' E 010°42'0 0.0
2017-Jul-17 14:20N 57°38' E 010°42'0 0.0
2017-Jul-17 13:53N 57°38' E 010°42'0 0.0
2017-Jul-17 13:20N 57°38' E 010°42'0 0.0
2017-Jul-17 12:56N 57°38' E 010°42'0 0.0
2017-Jul-17 12:26N 57°38' E 010°42'0 0.0
2017-Jul-17 11:23N 57°38' E 010°42'0 0.0
2017-Jul-17 10:56N 57°38' E 010°42'0 0.0
2017-Jul-17 09:47N 57°38' E 010°42'0 0.0
2017-Jul-17 09:23N 57°38' E 010°42'0 0.0
2017-Jul-17 08:59N 57°38' E 010°42'0 0.0
2017-Jul-17 08:26N 57°38' E 010°41'0 0.0
2017-Jul-17 07:53N 57°38' E 010°41'0 0.0
2017-Jul-17 05:17N 57°38' E 010°41'0 0.0
2017-Jul-17 04:56N 57°38' E 010°41'0 0.0
2017-Jul-17 04:11N 57°38' E 010°42'0 0.0
2017-Jul-17 02:26N 57°38' E 010°42'0 0.0
2017-Jul-17 01:35N 57°38' E 010°42'0 0.0
2017-Jul-17 01:11N 57°38' E 010°42'0 0.0
2017-Jul-17 00:26N 57°38' E 010°42'0 0.0
2017-Jul-16 23:38N 57°38' E 010°42'0 0.0
2017-Jul-16 22:17N 57°38' E 010°42'0 0.0
2017-Jul-16 21:50N 57°38' E 010°42'0 0.0
2017-Jul-16 21:23N 57°38' E 010°42'0 0.0
2017-Jul-16 20:35N 57°38' E 010°42'0 0.0
2017-Jul-16 20:08N 57°38' E 010°42'0 0.0
2017-Jul-16 19:44N 57°38' E 010°42'0 0.0
2017-Jul-16 19:29N 57°38' E 010°42'0 0.0
2017-Jul-16 18:20N 57°38' E 010°42'0 0.0
2017-Jul-16 17:56N 57°38' E 010°42'0 0.0
2017-Jul-16 17:29N 57°38' E 010°42'0 0.0
2017-Jul-16 16:52N 57°38' E 010°42'0 0.0
2017-Jul-16 15:16N 57°38' E 010°41'0 0.0
2017-Jul-16 14:37N 57°38' E 010°41'0 0.0
2017-Jul-16 14:25N 57°38' E 010°41'0 0.0
2017-Jul-16 13:46N 57°38' E 010°41'0 0.0
2017-Jul-16 12:07N 57°38' E 010°41'0 0.0
2017-Jul-16 11:22N 57°38' E 010°41'0 0.0
2017-Jul-16 10:01N 57°38' E 010°41'0 0.0
2017-Jul-16 09:25N 57°38' E 010°41'0 0.0
2017-Jul-16 08:58N 57°38' E 010°41'0 0.0
2017-Jul-16 08:13N 57°38' E 010°41'0 0.0
2017-Jul-16 07:43N 57°38' E 010°41'0 0.0
2017-Jul-16 07:28N 57°38' E 010°41'1735.9
2017-Jul-16 07:00N 57°24' E 010°24'   230 / 29753.110.8 15.0 15.0

Dump ship's entire track history